Time;durP1;ratioP1;P1;durP2;ratioP2;P2;SDS_P1;SDS_P2;PMS_P1;PMS_P2;Temp;Humidity;BMP_temperature;BMP_pressure;BME280_temperature;BME280_humidity;BME280_pressure;Samples;Min_cycle;Max_cycle;Signal;HPM_P1;HPM_P2
2024/02/09 00:00:51;;;;;;;4.27;2.00;;;9.30;99.90;;;;;;5138791;27;20416;-70
2024/02/09 00:03:18;;;;;;;3.73;2.27;;;9.30;99.90;;;;;;5140849;27;20460;-73
2024/02/09 00:05:44;;;;;;;2.77;2.20;;;9.40;99.90;;;;;;5116961;28;20483;-71
2024/02/09 00:08:13;;;;;;;2.83;1.80;;;9.40;99.90;;;;;;5138152;27;20487;-72
2024/02/09 00:10:40;;;;;;;2.53;2.00;;;9.40;99.90;;;;;;5140964;27;20476;-72
2024/02/09 00:13:12;;;;;;;2.50;1.80;;;9.40;99.90;;;;;;5144463;27;20435;-73
2024/02/09 00:15:38;;;;;;;3.10;1.60;;;9.40;99.90;;;;;;5151498;27;20511;-71
2024/02/09 00:18:04;;;;;;;2.03;1.60;;;9.40;99.90;;;;;;5141693;27;20991;-73
2024/02/09 00:20:30;;;;;;;2.33;1.50;;;9.40;99.90;;;;;;5113132;28;20695;-71
2024/02/09 00:22:56;;;;;;;2.00;1.30;;;9.50;99.90;;;;;;5144469;27;20464;-72
2024/02/09 00:25:21;;;;;;;1.77;1.30;;;9.50;99.90;;;;;;5144871;27;20183;-72
2024/02/09 00:27:47;;;;;;;1.37;0.87;;;9.50;99.90;;;;;;5146344;27;20183;-72
2024/02/09 00:30:13;;;;;;;1.90;1.13;;;9.50;99.90;;;;;;5139700;27;20250;-73
2024/02/09 00:32:39;;;;;;;1.40;1.00;;;9.50;99.90;;;;;;5142598;27;20187;-72
2024/02/09 00:35:07;;;;;;;2.40;1.40;;;9.50;99.90;;;;;;5130780;27;20431;-71
2024/02/09 00:37:34;;;;;;;3.33;1.50;;;9.50;99.90;;;;;;5139693;27;20191;-72
2024/02/09 00:40:04;;;;;;;1.43;1.13;;;9.50;99.90;;;;;;5140392;27;20416;-73
2024/02/09 00:42:30;;;;;;;1.90;1.30;;;9.50;99.90;;;;;;5141530;27;20480;-71
2024/02/09 00:44:56;;;;;;;1.30;1.00;;;9.50;99.90;;;;;;5145258;27;20404;-73
2024/02/09 00:47:22;;;;;;;2.30;1.10;;;9.50;99.90;;;;;;5158268;27;20286;-72
2024/02/09 00:49:48;;;;;;;1.30;0.83;;;9.60;99.90;;;;;;5137134;27;20190;-71
2024/02/09 00:52:14;;;;;;;3.50;1.60;;;9.50;99.90;;;;;;5143639;27;20420;-72
2024/02/09 00:54:41;;;;;;;6.80;2.47;;;9.50;99.90;;;;;;5140174;27;20187;-71
2024/02/09 00:57:08;;;;;;;3.50;2.40;;;9.50;99.90;;;;;;5151930;27;20480;-72
2024/02/09 00:59:38;;;;;;;4.93;2.40;;;9.50;99.90;;;;;;5124059;27;20585;-71
2024/02/09 01:02:06;;;;;;;3.87;2.60;;;9.50;99.90;;;;;;5130295;27;20586;-74
2024/02/09 01:04:36;;;;;;;4.80;2.30;;;9.40;99.90;;;;;;5141475;27;20428;-73
2024/02/09 01:07:03;;;;;;;5.00;3.00;;;9.40;99.90;;;;;;5141272;27;20424;-73
2024/02/09 01:09:29;;;;;;;6.53;2.90;;;9.40;99.90;;;;;;5137808;27;20421;-72
2024/02/09 01:11:55;;;;;;;4.43;2.50;;;9.40;99.90;;;;;;5140328;27;20742;-72
2024/02/09 02:45:11;;;;;;;0.83;0.63;;;9.20;99.90;;;;;;5147620;27;20699;-73
2024/02/09 02:47:40;;;;;;;1.33;1.00;;;9.20;99.90;;;;;;5150492;27;20278;-74
2024/02/09 03:06:34;;;;;;;1.40;1.00;;;9.20;99.90;;;;;;5144060;27;20440;-75
2024/02/09 03:08:59;;;;;;;1.00;0.80;;;9.20;99.90;;;;;;5140460;27;20417;-73
2024/02/09 03:11:25;;;;;;;1.17;0.80;;;9.20;99.90;;;;;;5145463;27;20500;-73
2024/02/09 03:13:50;;;;;;;1.43;0.73;;;9.20;99.90;;;;;;5135947;27;20192;-71
2024/02/09 03:16:17;;;;;;;1.83;1.00;;;9.20;99.90;;;;;;5140029;27;20256;-73
2024/02/09 03:18:46;;;;;;;1.90;1.20;;;9.10;99.90;;;;;;5139039;27;20202;-72
2024/02/09 03:21:20;;;;;;;1.90;1.03;;;9.10;99.90;;;;;;5136725;27;20413;-73
2024/02/09 03:23:47;;;;;;;2.20;1.10;;;9.10;99.90;;;;;;5140468;27;20526;-72
2024/02/09 03:26:13;;;;;;;1.80;1.07;;;9.10;99.90;;;;;;5139762;27;20477;-74
2024/02/09 03:28:39;;;;;;;1.87;0.90;;;9.20;99.90;;;;;;5121497;27;20839;-73
2024/02/09 03:31:04;;;;;;;1.20;1.00;;;9.20;99.90;;;;;;5139953;27;20423;-72
2024/02/09 03:33:30;;;;;;;1.90;1.40;;;9.20;99.90;;;;;;5137488;27;20191;-72
2024/02/09 03:35:55;;;;;;;1.60;1.10;;;9.20;99.90;;;;;;5126993;27;20236;-73
2024/02/09 03:38:21;;;;;;;3.10;1.20;;;9.10;99.90;;;;;;5156207;27;20197;-73
2024/02/09 03:40:51;;;;;;;2.10;1.20;;;9.20;99.90;;;;;;5123482;27;20196;-73
2024/02/09 03:43:17;;;;;;;1.60;1.37;;;9.20;99.90;;;;;;5122984;27;20211;-72
2024/02/09 03:45:42;;;;;;;2.10;1.30;;;9.20;99.90;;;;;;5130262;27;20524;-72
2024/02/09 03:48:08;;;;;;;2.77;1.40;;;9.20;99.90;;;;;;5138663;27;20187;-72
2024/02/09 03:50:34;;;;;;;1.60;1.30;;;9.20;99.90;;;;;;5118967;27;20590;-79
2024/02/09 03:53:00;;;;;;;1.60;0.97;;;9.20;99.90;;;;;;5104833;27;20183;-72
2024/02/09 03:55:26;;;;;;;1.60;1.20;;;9.20;99.90;;;;;;5109117;27;20211;-72
2024/02/09 03:57:51;;;;;;;1.50;1.07;;;9.20;99.90;;;;;;5153410;27;20857;-77
2024/02/09 04:00:18;;;;;;;1.13;1.00;;;9.20;99.90;;;;;;5142669;27;20535;-72
2024/02/09 04:02:45;;;;;;;1.27;0.77;;;9.20;99.90;;;;;;5121006;27;20279;-74
2024/02/09 04:05:11;;;;;;;0.80;0.70;;;9.20;99.90;;;;;;5142397;27;20834;-74
2024/02/09 04:07:37;;;;;;;1.17;0.87;;;9.20;99.90;;;;;;5140339;27;20924;-75
2024/02/09 04:10:03;;;;;;;1.63;0.70;;;9.20;99.90;;;;;;5122300;27;20421;-72
2024/02/09 04:12:30;;;;;;;1.47;0.70;;;9.20;99.90;;;;;;5141266;27;20191;-72
2024/02/09 04:14:55;;;;;;;1.70;0.87;;;9.20;99.90;;;;;;5136160;27;20207;-73
2024/02/09 04:17:22;;;;;;;0.90;0.70;;;9.20;99.90;;;;;;5138366;27;20895;-71
2024/02/09 04:19:48;;;;;;;0.90;0.70;;;9.20;99.90;;;;;;5139555;27;20417;-73
2024/02/09 04:22:13;;;;;;;1.10;0.70;;;9.20;99.90;;;;;;5138444;27;20490;-73
2024/02/09 04:24:39;;;;;;;1.00;0.60;;;9.20;99.90;;;;;;5148116;27;20216;-73
2024/02/09 04:27:05;;;;;;;0.80;0.50;;;9.10;99.90;;;;;;5154474;27;20193;-73
2024/02/09 04:29:32;;;;;;;1.07;0.70;;;9.20;99.90;;;;;;5128479;27;20202;-73
2024/02/09 04:32:00;;;;;;;1.00;0.60;;;9.20;99.90;;;;;;5117804;27;20452;-73
2024/02/09 04:34:26;;;;;;;0.77;0.60;;;9.10;99.90;;;;;;5147398;27;20424;-72
2024/02/09 04:36:55;;;;;;;0.80;0.60;;;9.10;99.90;;;;;;5133599;27;20444;-71
2024/02/09 04:39:20;;;;;;;0.90;0.50;;;9.10;99.90;;;;;;5145091;27;20682;-73
2024/02/09 04:41:51;;;;;;;0.90;0.60;;;9.10;99.90;;;;;;5155703;27;20471;-74
2024/02/09 04:44:20;;;;;;;0.90;0.60;;;9.10;99.90;;;;;;5147958;27;20178;-74
2024/02/09 04:46:47;;;;;;;1.03;0.70;;;9.20;99.90;;;;;;5139150;27;20439;-74
2024/02/09 04:49:13;;;;;;;0.80;0.50;;;9.20;99.90;;;;;;5138526;27;20412;-72
2024/02/09 04:51:39;;;;;;;1.10;0.90;;;9.10;99.90;;;;;;5137391;27;20416;-72
2024/02/09 04:54:07;;;;;;;1.77;1.00;;;9.20;99.90;;;;;;5149861;27;20186;-73
2024/02/09 04:56:32;;;;;;;1.03;0.80;;;9.10;99.90;;;;;;5141776;27;20429;-71
2024/02/09 04:59:04;;;;;;;1.87;1.10;;;9.10;99.90;;;;;;5135954;27;20926;-73
2024/02/09 05:01:37;;;;;;;2.10;1.10;;;9.10;99.90;;;;;;5146964;27;20175;-73
2024/02/09 05:04:03;;;;;;;2.10;1.50;;;9.10;99.90;;;;;;5132003;27;20421;-73
2024/02/09 05:06:30;;;;;;;2.80;1.63;;;9.10;99.90;;;;;;5131586;27;20429;-73
2024/02/09 05:08:58;;;;;;;2.40;1.70;;;9.10;99.90;;;;;;5126227;27;20420;-72
2024/02/09 05:11:34;;;;;;;4.90;1.90;;;9.10;99.90;;;;;;5143502;27;20503;-73
2024/02/09 05:14:00;;;;;;;2.00;1.50;;;9.10;99.90;;;;;;5136197;27;20416;-73
2024/02/09 05:16:30;;;;;;;1.90;1.47;;;9.10;99.90;;;;;;5140767;27;20519;-73
2024/02/09 05:18:56;;;;;;;2.10;1.33;;;9.10;99.90;;;;;;5128707;27;20422;-73
2024/02/09 05:21:22;;;;;;;2.83;1.80;;;9.10;99.90;;;;;;5117845;27;20440;-72
2024/02/09 05:23:47;;;;;;;2.10;1.60;;;9.10;99.90;;;;;;5135099;27;20215;-72
2024/02/09 05:26:13;;;;;;;1.87;1.73;;;9.10;99.90;;;;;;5140845;27;20431;-74
2024/02/09 05:28:40;;;;;;;1.70;1.27;;;9.10;99.90;;;;;;5128586;27;20179;-73
2024/02/09 05:31:22;;;;;;;2.17;1.50;;;9.10;99.90;;;;;;5148179;27;20186;-74
2024/02/09 05:33:50;;;;;;;2.00;1.37;;;9.10;99.90;;;;;;5136652;27;20441;-72
2024/02/09 05:36:19;;;;;;;2.03;1.30;;;9.10;99.90;;;;;;5145045;27;20698;-74
2024/02/09 05:38:49;;;;;;;1.93;1.00;;;9.10;99.90;;;;;;5155617;27;20479;-74
2024/02/09 05:41:15;;;;;;;2.60;1.10;;;9.10;99.90;;;;;;5127831;27;20495;-72
2024/02/09 05:43:43;;;;;;;1.70;1.10;;;9.20;99.90;;;;;;5131060;27;20557;-73
2024/02/09 05:46:09;;;;;;;1.83;0.90;;;9.20;99.90;;;;;;5139854;27;21025;-74
2024/02/09 05:48:35;;;;;;;1.90;1.13;;;9.20;99.90;;;;;;5139019;27;20416;-73
2024/02/09 05:51:02;;;;;;;1.50;1.17;;;9.20;99.90;;;;;;5139182;27;20183;-73
2024/02/09 05:53:27;;;;;;;1.70;1.20;;;9.20;99.90;;;;;;5139550;28;20444;-72
2024/02/09 05:55:53;;;;;;;1.10;0.80;;;9.20;99.90;;;;;;5139339;28;20489;-74
2024/02/09 05:58:19;;;;;;;1.07;0.77;;;9.20;99.90;;;;;;5137821;27;20190;-75
2024/02/09 06:00:45;;;;;;;1.93;1.30;;;9.20;99.90;;;;;;5132138;27;20191;-72
2024/02/09 06:03:10;;;;;;;2.90;1.20;;;9.20;99.90;;;;;;5148055;27;20480;-73
2024/02/09 06:05:40;;;;;;;1.97;1.40;;;9.20;99.90;;;;;;5145185;27;20459;-72
2024/02/09 06:08:09;;;;;;;2.73;1.40;;;9.10;99.90;;;;;;5140092;27;20182;-74
2024/02/09 06:10:35;;;;;;;1.60;1.10;;;9.10;99.90;;;;;;5137169;27;20804;-72
2024/02/09 06:13:01;;;;;;;1.70;1.40;;;9.10;99.90;;;;;;5146215;27;20528;-74
2024/02/09 06:15:27;;;;;;;2.70;1.70;;;9.10;99.90;;;;;;5146656;27;20528;-73
2024/02/09 06:17:53;;;;;;;3.30;1.63;;;9.00;99.90;;;;;;5146571;27;20191;-73
2024/02/09 06:20:22;;;;;;;2.90;1.87;;;8.90;99.90;;;;;;5146041;27;20411;-74
2024/02/09 06:22:49;;;;;;;3.43;1.80;;;8.80;99.90;;;;;;5147405;27;20214;-75
2024/02/09 06:25:15;;;;;;;4.13;1.67;;;8.80;99.90;;;;;;5146393;27;20412;-72
2024/02/09 06:27:40;;;;;;;2.83;1.53;;;8.80;99.90;;;;;;5147586;27;20440;-73
2024/02/09 06:30:06;;;;;;;2.00;1.73;;;8.80;99.90;;;;;;5146183;27;20443;-72
2024/02/09 06:32:32;;;;;;;3.60;1.70;;;8.80;99.90;;;;;;5145767;27;20186;-76
2024/02/09 06:34:59;;;;;;;3.23;2.00;;;8.70;99.90;;;;;;5144892;27;20897;-73
2024/02/09 06:37:25;;;;;;;1.77;1.43;;;8.70;99.90;;;;;;5146509;27;20295;-75
2024/02/09 06:39:50;;;;;;;3.80;1.77;;;8.70;99.90;;;;;;5145950;27;20440;-74
2024/02/09 06:42:17;;;;;;;4.13;2.20;;;8.70;99.90;;;;;;5154348;27;20215;-75
2024/02/09 06:44:43;;;;;;;4.10;2.13;;;8.80;99.90;;;;;;5148765;27;20198;-76
2024/02/09 06:47:13;;;;;;;4.20;2.20;;;8.80;99.90;;;;;;5154692;27;20423;-74
2024/02/09 06:49:45;;;;;;;3.30;2.00;;;8.80;99.90;;;;;;5148599;27;20423;-73
2024/02/09 06:52:11;;;;;;;4.87;1.90;;;8.90;99.90;;;;;;5166248;27;20431;-74
2024/02/09 06:54:38;;;;;;;6.07;2.00;;;8.90;99.90;;;;;;5117606;27;20421;-75
2024/02/09 06:57:04;;;;;;;3.87;2.17;;;8.90;99.90;;;;;;5143400;27;20448;-76
2024/02/09 06:59:29;;;;;;;3.63;2.13;;;9.00;99.90;;;;;;5151391;27;20433;-74
2024/02/09 07:01:59;;;;;;;5.10;2.40;;;9.00;99.90;;;;;;5149494;27;20543;-76
2024/02/09 07:04:25;;;;;;;2.70;1.97;;;9.00;99.90;;;;;;5149364;27;20258;-73
2024/02/09 07:06:51;;;;;;;3.20;1.80;;;9.00;99.90;;;;;;5143491;27;20456;-75
2024/02/09 07:09:18;;;;;;;3.30;1.97;;;9.00;99.90;;;;;;5149415;27;20183;-74
2024/02/09 07:11:50;;;;;;;2.60;1.80;;;9.00;99.90;;;;;;5126020;27;20911;-74
2024/02/09 07:14:17;;;;;;;1.90;1.30;;;9.00;99.90;;;;;;5125863;27;20451;-73
2024/02/09 07:16:46;;;;;;;2.33;1.47;;;9.10;99.90;;;;;;5157144;27;20503;-74
2024/02/09 07:19:12;;;;;;;1.70;1.40;;;9.10;99.90;;;;;;5130013;27;20480;-74
2024/02/09 07:21:39;;;;;;;1.67;1.40;;;9.10;99.90;;;;;;5143306;27;20437;-77
2024/02/09 07:24:05;;;;;;;1.80;1.20;;;9.10;99.90;;;;;;5128452;27;20504;-75
2024/02/09 07:26:31;;;;;;;1.40;1.00;;;9.10;99.90;;;;;;5125086;27;20883;-74
2024/02/09 07:28:57;;;;;;;1.57;1.40;;;9.10;99.90;;;;;;5145913;27;20450;-74
2024/02/09 07:31:24;;;;;;;1.20;1.00;;;9.20;99.90;;;;;;5155398;27;20395;-74
2024/02/09 07:33:50;;;;;;;1.40;1.20;;;9.20;99.90;;;;;;5129307;27;20236;-76
2024/02/09 07:36:16;;;;;;;1.00;0.70;;;9.20;99.90;;;;;;5147747;27;20443;-76
2024/02/09 07:38:42;;;;;;;1.50;1.10;;;9.20;99.90;;;;;;5137522;27;20462;-76
2024/02/09 07:41:11;;;;;;;1.80;1.10;;;9.20;99.90;;;;;;5156286;27;20408;-76
2024/02/09 07:43:37;;;;;;;1.57;0.90;;;9.30;99.90;;;;;;5143667;27;20528;-77
2024/02/09 07:46:04;;;;;;;1.40;1.00;;;9.30;99.90;;;;;;5154718;27;20428;-74
2024/02/09 07:48:30;;;;;;;2.17;1.10;;;9.30;99.90;;;;;;5146696;27;20277;-75
2024/02/09 07:51:02;;;;;;;1.90;1.00;;;9.30;99.90;;;;;;5094982;27;20433;-75
2024/02/09 07:53:30;;;;;;;2.67;1.80;;;9.40;99.90;;;;;;5150276;27;20425;-77
2024/02/09 07:55:57;;;;;;;2.07;1.40;;;9.40;99.90;;;;;;5134421;27;20432;-75
2024/02/09 07:58:25;;;;;;;2.13;1.53;;;9.40;99.90;;;;;;5147253;27;20414;-74
2024/02/09 08:00:54;;;;;;;3.17;1.40;;;9.40;99.90;;;;;;5138917;27;20425;-75
2024/02/09 08:03:23;;;;;;;1.63;1.00;;;9.50;99.90;;;;;;5128197;27;20461;-74
2024/02/09 08:05:49;;;;;;;2.70;1.53;;;9.50;99.90;;;;;;5125859;27;20460;-75
2024/02/09 08:08:15;;;;;;;2.23;1.47;;;9.50;99.90;;;;;;5127941;27;20443;-74
2024/02/09 08:10:40;;;;;;;3.07;1.90;;;9.60;99.90;;;;;;5147457;27;20501;-76
2024/02/09 08:13:09;;;;;;;2.40;1.63;;;9.60;99.90;;;;;;5117353;27;20190;-75
2024/02/09 08:15:35;;;;;;;3.77;2.10;;;9.60;99.90;;;;;;5127801;27;20220;-75
2024/02/09 08:18:01;;;;;;;2.40;1.70;;;9.60;99.90;;;;;;5148453;27;20424;-75
2024/02/09 08:20:26;;;;;;;6.73;2.30;;;9.60;99.90;;;;;;5111365;27;20199;-76
2024/02/09 08:22:53;;;;;;;3.77;2.50;;;9.60;99.90;;;;;;5133126;27;20220;-78
2024/02/09 08:25:19;;;;;;;3.43;2.07;;;9.70;99.90;;;;;;5149822;27;20174;-75
2024/02/09 08:27:46;;;;;;;3.87;2.10;;;9.70;99.90;;;;;;5137896;27;20408;-76
2024/02/09 08:30:12;;;;;;;2.60;1.97;;;9.80;99.90;;;;;;5145022;27;20420;-75
2024/02/09 08:32:39;;;;;;;3.93;2.27;;;9.80;99.90;;;;;;5129369;27;20908;-76
2024/02/09 08:35:06;;;;;;;4.30;3.43;;;9.80;99.90;;;;;;5132385;27;20671;-77
2024/02/09 08:37:32;;;;;;;6.40;2.97;;;9.80;99.90;;;;;;5138093;27;20496;-74
2024/02/09 08:39:58;;;;;;;3.30;2.63;;;9.80;99.90;;;;;;5143512;27;20834;-73
2024/02/09 08:42:26;;;;;;;3.13;2.40;;;9.80;99.90;;;;;;5135192;27;20464;-73
2024/02/09 08:44:52;;;;;;;2.90;2.13;;;9.80;99.90;;;;;;5109630;27;20420;-73
2024/02/09 08:47:18;;;;;;;2.73;1.80;;;9.90;99.90;;;;;;5143769;27;20441;-75
2024/02/09 08:49:44;;;;;;;3.10;1.73;;;9.90;99.90;;;;;;5142192;27;20440;-76
2024/02/09 08:52:13;;;;;;;2.40;1.77;;;10.00;99.90;;;;;;5127928;27;20199;-74
2024/02/09 08:54:38;;;;;;;3.73;2.10;;;10.00;99.90;;;;;;5127905;27;20184;-75
2024/02/09 08:57:04;;;;;;;2.50;1.70;;;10.00;99.90;;;;;;5147101;27;20447;-75
2024/02/09 08:59:34;;;;;;;2.30;1.67;;;10.00;99.90;;;;;;5126454;27;20231;-74
2024/02/09 09:02:00;;;;;;;2.13;1.40;;;10.00;99.90;;;;;;5117669;27;20291;-73
2024/02/09 09:04:27;;;;;;;1.40;1.17;;;10.10;99.90;;;;;;5122491;27;20491;-75
2024/02/09 09:06:53;;;;;;;1.90;1.60;;;10.10;99.90;;;;;;5125756;27;20528;-75
2024/02/09 09:09:19;;;;;;;2.23;1.47;;;10.20;99.90;;;;;;5126887;27;20473;-75
2024/02/09 09:11:44;;;;;;;2.70;1.33;;;10.20;99.90;;;;;;5126483;27;20405;-76
2024/02/09 09:14:11;;;;;;;1.33;1.00;;;10.20;99.90;;;;;;5129730;27;20187;-75
2024/02/09 09:16:40;;;;;;;1.50;1.13;;;10.20;99.90;;;;;;5130220;27;20246;-77
2024/02/09 09:19:08;;;;;;;1.60;1.30;;;10.20;99.90;;;;;;5147131;27;20855;-75
2024/02/09 09:21:37;;;;;;;1.60;1.20;;;10.20;99.90;;;;;;5145481;27;20440;-76
2024/02/09 09:24:03;;;;;;;2.57;1.50;;;10.20;99.90;;;;;;5124976;27;20451;-77
2024/02/09 09:26:30;;;;;;;1.93;1.40;;;10.20;99.90;;;;;;5131242;27;20465;-75
2024/02/09 09:29:00;;;;;;;1.47;1.10;;;10.20;99.90;;;;;;5127704;27;20487;-76
2024/02/09 09:31:26;;;;;;;1.30;1.20;;;10.40;99.90;;;;;;5128818;27;20503;-74
2024/02/09 09:33:58;;;;;;;1.40;1.10;;;10.40;99.90;;;;;;5149185;27;20414;-78
2024/02/09 09:36:30;;;;;;;1.57;1.30;;;10.40;99.90;;;;;;5148005;27;20437;-75
2024/02/09 09:38:57;;;;;;;3.03;1.70;;;10.50;99.90;;;;;;5111760;28;20447;-78
2024/02/09 09:41:23;;;;;;;2.73;1.47;;;10.60;99.90;;;;;;5144577;27;20453;-77
2024/02/09 09:43:50;;;;;;;3.97;2.00;;;10.60;99.90;;;;;;5144995;27;20449;-76
2024/02/09 09:46:18;;;;;;;3.50;2.10;;;10.50;99.90;;;;;;5145728;27;20458;-75
2024/02/09 09:48:44;;;;;;;4.13;2.00;;;10.50;99.90;;;;;;5132017;27;20452;-72
2024/02/09 09:51:11;;;;;;;2.30;1.57;;;10.50;99.90;;;;;;5147369;28;20420;-73
2024/02/09 09:53:42;;;;;;;3.73;2.10;;;10.50;99.90;;;;;;5132461;28;20557;-75
2024/02/09 09:56:09;;;;;;;3.00;1.87;;;10.50;99.90;;;;;;5147185;27;20458;-73
2024/02/09 09:58:36;;;;;;;4.00;2.10;;;10.50;99.90;;;;;;5131240;28;20410;-76
2024/02/09 10:01:07;;;;;;;4.33;2.50;;;10.50;99.90;;;;;;5134561;28;20426;-77
2024/02/09 10:03:36;;;;;;;6.67;3.10;;;10.50;99.90;;;;;;5133491;28;20443;-75
2024/02/09 10:06:03;;;;;;;4.97;2.93;;;10.50;99.90;;;;;;5151110;28;20455;-75
2024/02/09 10:08:29;;;;;;;3.97;2.93;;;10.50;99.90;;;;;;5114002;28;20420;-76
2024/02/09 10:10:55;;;;;;;5.80;2.60;;;10.50;99.90;;;;;;5146730;28;20421;-75
2024/02/09 10:13:25;;;;;;;3.83;2.77;;;10.50;99.90;;;;;;5128434;28;20497;-75
2024/02/09 10:15:52;;;;;;;4.73;3.00;;;10.50;99.90;;;;;;5128329;28;20446;-74
2024/02/09 10:18:22;;;;;;;4.43;2.63;;;10.50;99.90;;;;;;5146062;28;20423;-78
2024/02/09 10:20:48;;;;;;;4.27;2.90;;;10.50;99.90;;;;;;5115438;27;20420;-74
2024/02/09 10:23:15;;;;;;;3.60;2.90;;;10.50;99.90;;;;;;5146394;28;20819;-75
2024/02/09 10:25:43;;;;;;;2.97;2.63;;;10.50;99.90;;;;;;5110713;28;20440;-75
2024/02/09 10:28:11;;;;;;;5.23;3.87;;;10.60;99.90;;;;;;5114191;28;20409;-75
2024/02/09 10:30:37;;;;;;;5.07;3.47;;;10.60;99.90;;;;;;5140316;28;20409;-74
2024/02/09 10:33:03;;;;;;;5.17;3.43;;;10.60;99.90;;;;;;5145663;28;20465;-76
2024/02/09 10:35:30;;;;;;;9.90;4.67;;;10.50;99.90;;;;;;5128280;28;20436;-77
2024/02/09 10:37:57;;;;;;;7.40;5.00;;;10.50;99.90;;;;;;5145828;28;20473;-75
2024/02/09 10:40:26;;;;;;;5.90;4.13;;;10.40;99.90;;;;;;5126978;28;20405;-75
2024/02/09 10:42:53;;;;;;;12.10;5.70;;;10.40;99.90;;;;;;5143076;28;20523;-75
2024/02/09 10:45:20;;;;;;;10.00;5.17;;;10.40;99.90;;;;;;5118863;27;20740;-75
2024/02/09 10:47:48;;;;;;;7.30;4.57;;;10.40;99.90;;;;;;5131316;27;20413;-75
2024/02/09 10:50:15;;;;;;;9.47;5.03;;;10.40;99.90;;;;;;5152412;27;20408;-75
2024/02/09 10:52:44;;;;;;;9.03;5.47;;;10.40;99.90;;;;;;5151129;27;20489;-76
2024/02/09 10:55:13;;;;;;;9.60;6.40;;;10.40;99.90;;;;;;5135654;27;20428;-76
2024/02/09 10:57:40;;;;;;;13.43;5.90;;;10.50;99.90;;;;;;5134483;27;20420;-75
2024/02/09 11:00:10;;;;;;;8.80;4.50;;;10.60;99.90;;;;;;5153189;27;20835;-75
2024/02/09 11:02:36;;;;;;;8.40;6.10;;;10.60;99.90;;;;;;5133081;27;20452;-76
2024/02/09 11:05:05;;;;;;;8.37;5.00;;;10.70;99.90;;;;;;5127925;27;20417;-76
2024/02/09 11:07:31;;;;;;;11.10;5.47;;;10.70;99.90;;;;;;5114457;28;20409;-74
2024/02/09 11:09:58;;;;;;;7.53;4.60;;;10.70;99.90;;;;;;5128951;27;20472;-76
2024/02/09 11:12:24;;;;;;;8.60;4.63;;;10.70;99.90;;;;;;5152157;27;20404;-75
2024/02/09 11:14:50;;;;;;;7.27;4.63;;;10.70;99.90;;;;;;5149960;27;20431;-74
2024/02/09 11:17:18;;;;;;;7.00;4.80;;;10.70;99.90;;;;;;5150251;27;20191;-75
2024/02/09 11:19:45;;;;;;;7.60;4.57;;;10.80;99.90;;;;;;5148935;27;20249;-76
2024/02/09 11:22:12;;;;;;;9.60;5.50;;;10.80;99.90;;;;;;5146428;27;20617;-73
2024/02/09 11:24:38;;;;;;;7.07;3.60;;;10.80;99.90;;;;;;5134035;27;20502;-76
2024/02/09 11:27:05;;;;;;;5.37;4.80;;;10.80;99.90;;;;;;5140617;27;20436;-72
2024/02/09 11:29:34;;;;;;;4.43;3.40;;;10.80;99.90;;;;;;5133284;27;20440;-75
2024/02/09 11:32:02;;;;;;;7.80;4.70;;;10.80;99.90;;;;;;5127876;27;20480;-73
2024/02/09 11:34:29;;;;;;;6.33;4.60;;;10.70;99.90;;;;;;5126990;27;20466;-74
2024/02/09 11:36:58;;;;;;;8.30;5.93;;;10.70;99.90;;;;;;5127649;27;20441;-74
2024/02/09 11:39:25;;;;;;;11.00;5.13;;;10.70;99.90;;;;;;5139418;27;20437;-75
2024/02/09 11:41:52;;;;;;;9.73;5.30;;;10.70;99.90;;;;;;5148920;27;20514;-76
2024/02/09 11:44:19;;;;;;;8.57;4.80;;;10.70;99.90;;;;;;5133226;27;20728;-72
2024/02/09 11:46:48;;;;;;;10.00;6.60;;;10.70;99.90;;;;;;5146716;27;20432;-73
2024/02/09 11:49:14;;;;;;;12.47;5.87;;;10.80;99.90;;;;;;5144824;27;20494;-73
2024/02/09 11:51:40;;;;;;;10.83;6.17;;;10.80;99.90;;;;;;5111904;27;20444;-71
2024/02/09 11:54:10;;;;;;;7.43;5.17;;;10.80;99.90;;;;;;5110596;27;20901;-71
2024/02/09 11:56:36;;;;;;;7.37;5.50;;;10.90;99.90;;;;;;5142269;27;20263;-74
2024/02/09 11:59:05;;;;;;;7.57;5.00;;;10.90;99.90;;;;;;5145246;27;20457;-74
2024/02/09 12:01:32;;;;;;;6.80;4.80;;;10.90;99.90;;;;;;5110120;27;20431;-74
2024/02/09 12:03:59;;;;;;;8.17;4.47;;;10.90;99.90;;;;;;5147626;27;20830;-73
2024/02/09 12:06:27;;;;;;;7.57;5.43;;;11.00;99.90;;;;;;5127143;27;20435;-76
2024/02/09 12:08:53;;;;;;;7.40;5.07;;;11.00;99.90;;;;;;5146355;27;20418;-74
2024/02/09 12:11:22;;;;;;;5.23;3.87;;;11.00;99.90;;;;;;5146470;27;20420;-71
2024/02/09 12:13:49;;;;;;;4.17;3.53;;;11.00;99.90;;;;;;5143319;27;20840;-75
2024/02/09 12:16:18;;;;;;;5.90;4.57;;;11.00;99.90;;;;;;5144894;27;20428;-75
2024/02/09 12:18:53;;;;;;;7.10;4.90;;;11.00;99.90;;;;;;5121318;27;20425;-76
2024/02/09 12:21:19;;;;;;;9.20;4.83;;;11.00;99.90;;;;;;5145203;27;20428;-72
2024/02/09 12:23:45;;;;;;;6.20;4.40;;;11.10;99.90;;;;;;5110831;27;20465;-72
2024/02/09 12:26:19;;;;;;;8.20;5.23;;;11.30;99.90;;;;;;5136192;27;20662;-75
2024/02/09 12:28:45;;;;;;;7.97;4.53;;;11.40;99.90;;;;;;5121762;27;20432;-71
2024/02/09 12:31:19;;;;;;;7.70;4.33;;;11.60;99.90;;;;;;5146540;27;20489;-75
2024/02/09 12:33:50;;;;;;;7.57;4.63;;;11.60;99.90;;;;;;5145371;27;20862;-77
2024/02/09 12:36:20;;;;;;;4.10;3.70;;;11.80;99.90;;;;;;5126912;27;20509;-74
2024/02/09 12:38:50;;;;;;;6.47;3.60;;;11.80;99.90;;;;;;5146411;27;20432;-75
2024/02/09 12:41:16;;;;;;;4.53;3.97;;;11.90;99.90;;;;;;5146260;27;20459;-75
2024/02/09 12:43:44;;;;;;;4.23;3.27;;;12.00;99.90;;;;;;5144489;27;20476;-73
2024/02/09 12:46:10;;;;;;;6.30;3.93;;;12.10;99.90;;;;;;5128527;27;20285;-76
2024/02/09 12:48:36;;;;;;;4.03;3.10;;;12.40;99.90;;;;;;5149363;27;20416;-74
2024/02/09 12:51:04;;;;;;;4.77;3.47;;;12.50;99.90;;;;;;5149963;27;20266;-73
2024/02/09 12:53:33;;;;;;;5.27;3.37;;;12.50;99.90;;;;;;5146342;27;20499;-74
2024/02/09 12:55:59;;;;;;;5.13;3.00;;;12.70;99.90;;;;;;5125151;27;20456;-73
2024/02/09 12:58:24;;;;;;;5.77;3.40;;;12.70;99.90;;;;;;5107416;27;20433;-74
2024/02/09 13:00:52;;;;;;;5.80;3.37;;;12.80;99.90;;;;;;5145245;27;20443;-74
2024/02/09 13:03:20;;;;;;;5.47;4.30;;;13.00;99.90;;;;;;5143976;27;20214;-73
2024/02/09 13:05:48;;;;;;;5.60;4.00;;;13.20;99.90;;;;;;5147294;27;20437;-74
2024/02/09 13:08:14;;;;;;;5.20;3.33;;;13.20;99.90;;;;;;5124747;27;20438;-72
2024/02/09 13:10:39;;;;;;;4.40;2.40;;;13.20;99.90;;;;;;5126929;27;20424;-73
2024/02/09 13:13:08;;;;;;;3.50;2.77;;;13.20;99.90;;;;;;5143409;27;20312;-73
2024/02/09 13:15:34;;;;;;;3.50;2.90;;;13.20;99.90;;;;;;5143115;27;20206;-73
2024/02/09 13:18:01;;;;;;;5.00;3.80;;;13.20;99.90;;;;;;5134815;27;20420;-73
2024/02/09 13:20:27;;;;;;;5.37;3.33;;;13.10;99.90;;;;;;5147253;27;20420;-75
2024/02/09 13:22:55;;;;;;;3.10;2.73;;;13.10;99.90;;;;;;5146281;27;20519;-72
2024/02/09 13:25:22;;;;;;;4.63;3.07;;;13.10;99.90;;;;;;5146666;27;20187;-74
2024/02/09 13:27:50;;;;;;;3.80;3.40;;;13.20;99.90;;;;;;5145998;27;20413;-74
2024/02/09 13:30:19;;;;;;;4.70;4.23;;;13.20;99.90;;;;;;5144164;27;20423;-74
2024/02/09 13:32:47;;;;;;;4.10;3.37;;;13.30;99.90;;;;;;5128228;27;20424;-74
2024/02/09 13:35:17;;;;;;;7.47;3.80;;;13.50;99.90;;;;;;5129207;27;20413;-71
2024/02/09 13:37:45;;;;;;;5.50;3.80;;;13.60;99.90;;;;;;5144827;27;20429;-72
2024/02/09 13:40:15;;;;;;;5.10;3.13;;;13.60;99.90;;;;;;5144099;27;20497;-74
2024/02/09 13:42:51;;;;;;;3.70;2.93;;;13.40;99.90;;;;;;5144859;27;20471;-74
2024/02/09 13:45:23;;;;;;;3.23;2.60;;;13.40;99.90;;;;;;5145490;27;20423;-75
2024/02/09 13:47:51;;;;;;;4.67;3.37;;;13.50;99.90;;;;;;5125510;28;20408;-73
2024/02/09 13:50:18;;;;;;;4.70;2.77;;;13.40;99.90;;;;;;5143325;28;20400;-71
2024/02/09 13:52:44;;;;;;;4.40;3.03;;;13.50;99.90;;;;;;5144572;28;20424;-74
2024/02/09 13:55:13;;;;;;;5.93;3.87;;;13.60;99.90;;;;;;5125738;28;20453;-75
2024/02/09 13:57:45;;;;;;;4.07;3.07;;;13.50;99.90;;;;;;5124594;28;20194;-75
2024/02/09 14:00:13;;;;;;;5.20;3.17;;;13.60;99.90;;;;;;5143709;28;20423;-75
2024/02/09 14:02:42;;;;;;;4.23;3.13;;;13.60;99.90;;;;;;5124701;28;20467;-73
2024/02/09 14:05:11;;;;;;;3.63;2.73;;;13.70;99.90;;;;;;5147069;27;20417;-72
2024/02/09 14:07:41;;;;;;;4.00;2.70;;;13.70;99.90;;;;;;5142980;28;20466;-73
2024/02/09 14:10:11;;;;;;;4.40;3.83;;;13.70;99.90;;;;;;5131649;28;20458;-73
2024/02/09 14:12:38;;;;;;;3.73;2.87;;;13.80;99.90;;;;;;5142405;28;20495;-73
2024/02/09 14:15:04;;;;;;;3.03;2.63;;;13.90;99.90;;;;;;5143950;28;20425;-74
2024/02/09 14:17:33;;;;;;;3.00;2.60;;;13.80;99.90;;;;;;5138669;28;20452;-75
2024/02/09 14:19:59;;;;;;;2.97;2.67;;;13.90;99.90;;;;;;5146259;27;20967;-75
2024/02/09 14:22:25;;;;;;;4.80;3.40;;;13.90;99.90;;;;;;5149073;27;20509;-73
2024/02/09 14:24:50;;;;;;;2.80;2.27;;;13.90;99.90;;;;;;5134337;27;20191;-73
2024/02/09 14:27:16;;;;;;;3.30;2.50;;;13.90;99.90;;;;;;5130176;27;20203;-72
2024/02/09 14:29:45;;;;;;;3.37;2.77;;;13.90;99.90;;;;;;5129229;27;20493;-74
2024/02/09 14:32:11;;;;;;;3.50;2.10;;;13.70;99.90;;;;;;5129142;27;20193;-73
2024/02/09 14:34:38;;;;;;;4.67;3.10;;;13.70;99.90;;;;;;5142572;27;21018;-74
2024/02/09 14:37:04;;;;;;;3.50;2.90;;;13.80;99.90;;;;;;5131803;27;20433;-72
2024/02/09 14:39:30;;;;;;;7.13;2.37;;;13.70;99.90;;;;;;5114795;27;20809;-73